Time;durP1;ratioP1;P1;durP2;ratioP2;P2;SDS_P1;SDS_P2;PMS_P1;PMS_P2;Temp;Humidity;BMP_temperature;BMP_pressure;BME280_temperature;BME280_humidity;BME280_pressure;Samples;Min_cycle;Max_cycle;Signal;HPM_P1;HPM_P2
2021/07/11 00:01:06;;;;;;;14.40;10.87;;;15.40;92.20;;;;;;5111603;28;20409;-64
2021/07/11 00:03:34;;;;;;;13.13;11.67;;;15.40;92.30;;;;;;5112552;28;20043;-65
2021/07/11 00:05:59;;;;;;;13.40;12.03;;;15.40;92.40;;;;;;5111648;28;20407;-65
2021/07/11 00:08:25;;;;;;;15.00;11.83;;;15.40;92.40;;;;;;5111930;28;20047;-64
2021/07/11 00:10:51;;;;;;;11.93;10.40;;;15.30;92.40;;;;;;5112564;28;20480;-64
2021/07/11 00:13:16;;;;;;;13.10;11.40;;;15.40;92.50;;;;;;5111034;28;20055;-65
2021/07/11 00:15:42;;;;;;;13.97;11.20;;;15.30;92.40;;;;;;5111846;28;20552;-65
2021/07/11 00:18:08;;;;;;;11.33;10.13;;;15.30;92.50;;;;;;5112280;28;20550;-65
2021/07/11 00:20:34;;;;;;;13.40;12.03;;;15.30;92.50;;;;;;5111330;28;20507;-66
2021/07/11 00:22:59;;;;;;;14.23;12.73;;;15.20;92.60;;;;;;5112137;28;20184;-66
2021/07/11 00:25:25;;;;;;;11.80;10.60;;;15.30;92.60;;;;;;5111822;28;20047;-66
2021/07/11 00:27:51;;;;;;;11.60;10.37;;;15.20;92.60;;;;;;5111494;28;20075;-65
2021/07/11 00:30:17;;;;;;;11.67;10.47;;;15.20;92.70;;;;;;5111761;28;20043;-66
2021/07/11 00:32:44;;;;;;;15.30;11.13;;;15.20;92.70;;;;;;5112005;28;20169;-66
2021/07/11 00:35:10;;;;;;;10.83;9.73;;;15.30;92.70;;;;;;5111056;28;20135;-66
2021/07/11 00:37:36;;;;;;;14.33;11.43;;;15.20;92.60;;;;;;5111846;28;20108;-66
2021/07/11 00:40:04;;;;;;;12.53;11.07;;;15.20;92.60;;;;;;5112081;28;20059;-65
2021/07/11 00:42:30;;;;;;;12.20;10.60;;;15.20;92.70;;;;;;5111157;28;20043;-65
2021/07/11 00:44:55;;;;;;;13.43;11.47;;;15.20;92.60;;;;;;5111822;28;20484;-65
2021/07/11 00:47:21;;;;;;;11.27;10.03;;;15.20;92.60;;;;;;5111553;28;20078;-66
2021/07/11 00:49:47;;;;;;;13.03;10.90;;;15.20;92.70;;;;;;5110984;28;20624;-65
2021/07/11 00:52:14;;;;;;;12.77;11.30;;;15.20;92.60;;;;;;5111384;28;20080;-66
2021/07/11 00:54:40;;;;;;;10.87;9.80;;;15.20;92.70;;;;;;5111890;28;20067;-66
2021/07/11 00:57:06;;;;;;;12.67;11.37;;;15.10;92.80;;;;;;5110664;28;20116;-65
2021/07/11 00:59:34;;;;;;;13.43;11.97;;;15.10;92.90;;;;;;5111433;28;20051;-66
2021/07/11 01:02:09;;;;;;;12.97;11.53;;;15.10;93.00;;;;;;5111349;28;20043;-66
2021/07/11 01:04:39;;;;;;;12.53;11.33;;;15.10;93.00;;;;;;5111280;28;20052;-65
2021/07/11 01:07:08;;;;;;;12.83;11.17;;;15.10;93.00;;;;;;5111525;28;20044;-65
2021/07/11 01:09:44;;;;;;;11.57;9.77;;;15.10;93.10;;;;;;5110819;28;20054;-66
2021/07/11 01:12:25;;;;;;;13.40;11.60;;;15.10;93.00;;;;;;5111129;28;20146;-65
2021/07/11 01:14:53;;;;;;;11.80;10.67;;;15.10;93.00;;;;;;5111235;28;20055;-65
2021/07/11 01:17:23;;;;;;;13.80;11.27;;;15.10;93.00;;;;;;5110036;28;20139;-66
2021/07/11 01:19:48;;;;;;;12.53;10.83;;;15.10;93.00;;;;;;5111127;28;20168;-65
2021/07/11 01:22:18;;;;;;;17.03;11.53;;;15.10;93.00;;;;;;5111133;28;20135;-66
2021/07/11 01:24:52;;;;;;;11.57;10.37;;;15.10;93.10;;;;;;5110702;28;20071;-66
2021/07/11 01:27:19;;;;;;;16.17;12.63;;;15.10;93.10;;;;;;5113926;28;20509;-66
2021/07/11 01:29:46;;;;;;;12.77;11.30;;;15.00;93.10;;;;;;5115367;28;20047;-66
2021/07/11 01:32:14;;;;;;;13.97;12.17;;;15.10;93.10;;;;;;5114758;28;20085;-65
2021/07/11 01:34:41;;;;;;;16.10;13.07;;;15.10;93.00;;;;;;5115635;28;20044;-65
2021/07/11 01:37:07;;;;;;;10.60;9.50;;;15.00;93.00;;;;;;5114896;28;20044;-65
2021/07/11 01:39:33;;;;;;;13.27;11.87;;;15.00;93.10;;;;;;5114398;28;20138;-65
2021/07/11 01:42:00;;;;;;;14.30;12.10;;;14.90;93.20;;;;;;5115271;28;20492;-65
2021/07/11 01:44:28;;;;;;;14.00;12.03;;;15.00;93.30;;;;;;5114534;28;20047;-65
2021/07/11 01:46:53;;;;;;;15.63;13.03;;;14.90;93.30;;;;;;5115344;28;20050;-65
2021/07/11 01:49:20;;;;;;;15.07;12.73;;;15.00;93.30;;;;;;5114968;28;20043;-65
2021/07/11 01:51:47;;;;;;;14.43;12.33;;;15.00;93.40;;;;;;5114237;28;20480;-65
2021/07/11 01:54:13;;;;;;;15.97;13.07;;;15.00;93.40;;;;;;5114845;28;20121;-65
2021/07/11 01:56:40;;;;;;;15.83;13.03;;;15.00;93.30;;;;;;5115132;28;20052;-66
2021/07/11 01:59:09;;;;;;;14.77;12.90;;;15.00;93.20;;;;;;5114415;28;20073;-65
2021/07/11 02:01:34;;;;;;;14.03;12.40;;;15.00;93.30;;;;;;5115065;28;20058;-65
2021/07/11 02:04:00;;;;;;;15.07;13.47;;;15.00;93.30;;;;;;5114952;28;20044;-65
2021/07/11 02:06:26;;;;;;;15.93;12.87;;;15.00;93.20;;;;;;5113875;28;20059;-65
2021/07/11 02:08:52;;;;;;;13.97;10.97;;;15.00;93.20;;;;;;5114880;28;20097;-63
2021/07/11 02:11:18;;;;;;;15.43;13.83;;;15.00;93.30;;;;;;5114242;28;20122;-66
2021/07/11 02:13:48;;;;;;;14.93;13.17;;;14.90;93.30;;;;;;5113950;28;20047;-64
2021/07/11 02:16:32;;;;;;;14.47;13.00;;;14.90;93.30;;;;;;5114393;28;20043;-63
2021/07/11 02:18:59;;;;;;;14.80;13.30;;;14.90;93.30;;;;;;5114555;28;20139;-65
2021/07/11 02:21:27;;;;;;;16.70;13.10;;;14.90;93.40;;;;;;5113584;28;20048;-65
2021/07/11 02:23:53;;;;;;;18.23;14.00;;;14.90;93.40;;;;;;5114283;28;20104;-65
2021/07/11 02:26:23;;;;;;;18.87;14.27;;;14.80;93.40;;;;;;5114245;28;20044;-65
2021/07/11 02:28:50;;;;;;;15.77;14.20;;;14.80;93.50;;;;;;5113747;28;20039;-65
2021/07/11 02:31:17;;;;;;;17.10;14.40;;;14.80;93.50;;;;;;5114083;28;20047;-64
2021/07/11 02:33:44;;;;;;;17.43;14.87;;;14.90;93.60;;;;;;5113557;28;20051;-64
2021/07/11 02:36:26;;;;;;;15.10;13.50;;;14.90;93.60;;;;;;5114066;28;20071;-65
2021/07/11 02:39:00;;;;;;;17.17;13.63;;;14.90;93.60;;;;;;5114314;28;20127;-65
2021/07/11 02:41:28;;;;;;;15.23;13.63;;;14.90;93.70;;;;;;5113041;28;20082;-65
2021/07/11 02:43:56;;;;;;;17.87;14.23;;;14.90;94.10;;;;;;5114168;28;20418;-64
2021/07/11 02:46:27;;;;;;;19.67;14.73;;;14.90;93.80;;;;;;5113843;28;20051;-64
2021/07/11 02:48:53;;;;;;;14.80;11.47;;;14.90;93.80;;;;;;5113116;28;20126;-65
2021/07/11 02:51:25;;;;;;;14.00;11.90;;;14.90;93.90;;;;;;5113766;28;20039;-64
2021/07/11 02:53:54;;;;;;;15.10;13.50;;;15.00;93.90;;;;;;5114075;28;20047;-64
2021/07/11 02:56:21;;;;;;;15.37;13.77;;;15.00;93.90;;;;;;5112729;28;20104;-64
2021/07/11 02:58:50;;;;;;;15.67;13.57;;;15.00;93.90;;;;;;5113631;28;20051;-64
2021/07/11 03:01:16;;;;;;;16.33;14.30;;;15.10;93.90;;;;;;5113499;28;20043;-64
2021/07/11 03:03:43;;;;;;;15.97;12.00;;;15.10;94.00;;;;;;5113178;28;20051;-64
2021/07/11 03:06:09;;;;;;;18.00;15.13;;;15.10;93.90;;;;;;5113461;28;20051;-64
2021/07/11 03:08:35;;;;;;;17.80;14.87;;;15.10;93.90;;;;;;5113553;28;20047;-65
2021/07/11 03:11:02;;;;;;;18.50;15.23;;;15.10;93.90;;;;;;5112922;28;20051;-64
2021/07/11 03:13:31;;;;;;;18.23;15.10;;;15.00;94.00;;;;;;5113245;28;20062;-64
2021/07/11 03:15:58;;;;;;;14.67;12.93;;;15.00;94.00;;;;;;5112512;28;20067;-65
2021/07/11 03:18:25;;;;;;;18.27;15.77;;;15.00;94.00;;;;;;5113341;28;20112;-65
2021/07/11 03:20:51;;;;;;;17.20;14.30;;;15.00;94.10;;;;;;5113345;28;20058;-64
2021/07/11 03:23:18;;;;;;;16.33;14.63;;;15.00;94.10;;;;;;5112359;28;20043;-64
2021/07/11 03:25:48;;;;;;;16.20;14.57;;;15.00;94.10;;;;;;5113191;28;20096;-64
2021/07/11 03:28:14;;;;;;;16.40;14.70;;;15.00;94.10;;;;;;5112982;28;20059;-64
2021/07/11 03:30:43;;;;;;;17.90;15.83;;;15.00;94.10;;;;;;5112434;28;20130;-64
2021/07/11 03:33:12;;;;;;;17.53;15.63;;;14.90;94.10;;;;;;5112736;28;20503;-64
2021/07/11 03:35:43;;;;;;;16.57;14.77;;;14.90;94.20;;;;;;5113352;28;20360;-64
2021/07/11 03:38:14;;;;;;;23.00;16.45;;;14.90;94.20;;;;;;5112163;28;20044;-65
2021/07/11 03:40:45;;;;;;;17.90;14.63;;;14.90;94.20;;;;;;5112888;28;20058;-64
2021/07/11 03:43:12;;;;;;;18.00;15.87;;;14.80;94.30;;;;;;5112707;28;20043;-64
2021/07/11 03:45:41;;;;;;;17.60;15.73;;;14.80;94.40;;;;;;5112298;28;20126;-64
2021/07/11 03:48:10;;;;;;;17.20;15.40;;;14.80;94.40;;;;;;5112508;28;20122;-65
2021/07/11 03:50:37;;;;;;;20.70;15.10;;;14.80;94.50;;;;;;5112664;28;20070;-65
2021/07/11 03:53:06;;;;;;;19.87;15.90;;;14.70;94.50;;;;;;5112011;28;20058;-65
2021/07/11 03:55:34;;;;;;;19.00;15.00;;;14.70;94.60;;;;;;5112520;28;20044;-65
2021/07/11 03:58:01;;;;;;;17.13;13.77;;;14.80;94.70;;;;;;5112063;28;20059;-65
2021/07/11 04:00:28;;;;;;;19.83;15.47;;;14.80;94.60;;;;;;5112259;28;20175;-65
2021/07/11 04:02:55;;;;;;;20.47;16.43;;;14.80;94.60;;;;;;5112402;27;20116;-65
2021/07/11 04:05:22;;;;;;;15.87;14.27;;;14.80;94.70;;;;;;5111366;28;20511;-65
2021/07/11 04:07:51;;;;;;;17.73;15.20;;;14.80;94.70;;;;;;5112237;28;20138;-65
2021/07/11 04:10:20;;;;;;;21.60;16.00;;;14.80;94.80;;;;;;5112068;28;20043;-65
2021/07/11 04:12:46;;;;;;;18.93;14.80;;;14.90;94.90;;;;;;5111538;28;20054;-65
2021/07/11 04:15:14;;;;;;;19.80;15.97;;;14.90;94.80;;;;;;5111659;28;20048;-65
2021/07/11 04:17:51;;;;;;;20.50;16.37;;;14.90;94.80;;;;;;5111805;28;20508;-65
2021/07/11 04:20:18;;;;;;;19.07;13.60;;;15.00;94.80;;;;;;5111087;28;20055;-65
2021/07/11 04:22:48;;;;;;;20.07;17.27;;;15.00;94.80;;;;;;5111973;28;20450;-65
2021/07/11 04:25:15;;;;;;;19.73;14.53;;;15.00;94.80;;;;;;5111848;28;20047;-65
2021/07/11 04:27:41;;;;;;;17.30;14.80;;;15.10;94.90;;;;;;5111364;28;20047;-65
2021/07/11 04:30:07;;;;;;;19.40;17.30;;;15.10;94.90;;;;;;5111958;28;20407;-65
2021/07/11 04:32:35;;;;;;;19.20;16.43;;;15.10;95.00;;;;;;5111645;28;20465;-65
2021/07/11 04:35:01;;;;;;;21.63;17.50;;;15.20;95.10;;;;;;5111131;28;20040;-65
2021/07/11 04:37:27;;;;;;;16.77;14.97;;;15.30;95.00;;;;;;5111621;28;20055;-64
2021/07/11 04:39:52;;;;;;;18.40;16.10;;;15.40;94.90;;;;;;5111968;28;20048;-65
2021/07/11 04:42:18;;;;;;;20.33;18.23;;;15.60;94.90;;;;;;5111099;28;20048;-64
2021/07/11 04:44:45;;;;;;;19.73;15.80;;;15.60;94.80;;;;;;5111755;28;20448;-64
2021/07/11 04:47:13;;;;;;;20.43;16.80;;;15.70;94.70;;;;;;5110770;28;20039;-64
2021/07/11 04:49:39;;;;;;;21.63;17.33;;;15.80;94.60;;;;;;5111581;28;20506;-64
2021/07/11 04:52:05;;;;;;;18.87;16.87;;;15.90;94.50;;;;;;5112019;28;20357;-64
2021/07/11 04:54:33;;;;;;;17.43;14.47;;;16.00;94.40;;;;;;5110856;28;20068;-64
2021/07/11 04:56:59;;;;;;;19.00;16.70;;;16.10;94.20;;;;;;5112112;28;20135;-64
2021/07/11 04:59:25;;;;;;;16.10;14.40;;;16.10;94.10;;;;;;5111267;28;20479;-64
2021/07/11 05:01:51;;;;;;;19.00;17.00;;;16.10;94.10;;;;;;5110492;28;20047;-64
2021/07/11 05:04:17;;;;;;;18.93;15.60;;;16.10;94.00;;;;;;5111219;28;20105;-64
2021/07/11 05:06:43;;;;;;;19.43;16.33;;;16.10;94.00;;;;;;5111737;28;20138;-64
2021/07/11 05:09:09;;;;;;;19.77;15.27;;;16.10;94.00;;;;;;5110841;28;20077;-64
2021/07/11 05:11:35;;;;;;;18.23;16.23;;;16.10;94.00;;;;;;5111559;28;20544;-64
2021/07/11 05:14:01;;;;;;;24.33;17.37;;;16.10;94.00;;;;;;5111655;28;20127;-64
2021/07/11 05:16:27;;;;;;;17.77;14.73;;;16.10;94.10;;;;;;5110590;28;20067;-64
2021/07/11 05:18:52;;;;;;;19.87;16.33;;;16.10;94.00;;;;;;5111329;28;20048;-64
2021/07/11 05:21:18;;;;;;;22.03;17.50;;;16.10;94.10;;;;;;5110828;28;20047;-64
2021/07/11 05:23:44;;;;;;;21.13;17.00;;;16.20;94.00;;;;;;5110832;28;20051;-64
2021/07/11 05:26:10;;;;;;;19.43;16.83;;;16.20;94.00;;;;;;5111040;28;20499;-64
2021/07/11 05:28:36;;;;;;;19.57;16.80;;;16.30;94.10;;;;;;5111238;28;20043;-65
2021/07/11 05:31:01;;;;;;;18.93;16.83;;;16.30;94.00;;;;;;5110458;28;20047;-64
2021/07/11 05:33:27;;;;;;;19.60;17.40;;;16.40;94.10;;;;;;5110874;28;20503;-64
2021/07/11 05:35:54;;;;;;;16.07;14.30;;;16.40;94.10;;;;;;5111656;28;20054;-65
2021/07/11 05:38:20;;;;;;;17.20;15.40;;;16.40;94.10;;;;;;5110093;28;20480;-65
2021/07/11 05:40:45;;;;;;;19.37;16.20;;;16.50;94.10;;;;;;5111179;28;20058;-64
2021/07/11 05:43:11;;;;;;;15.73;14.10;;;16.60;94.10;;;;;;5110970;28;20044;-64
2021/07/11 05:45:36;;;;;;;16.77;14.77;;;16.70;93.90;;;;;;5110450;28;20126;-64
2021/07/11 05:48:02;;;;;;;14.80;13.10;;;16.80;93.80;;;;;;5111040;28;20044;-64
2021/07/11 05:50:28;;;;;;;16.10;14.17;;;16.80;93.70;;;;;;5110226;28;20486;-64
2021/07/11 05:52:54;;;;;;;15.23;13.63;;;16.80;93.70;;;;;;5111122;28;20119;-64
2021/07/11 05:55:20;;;;;;;15.40;13.60;;;16.90;93.70;;;;;;5110875;28;20139;-64
2021/07/11 05:57:46;;;;;;;14.43;13.03;;;16.90;93.60;;;;;;5110442;28;20051;-64
2021/07/11 06:00:12;;;;;;;14.00;12.37;;;16.90;93.50;;;;;;5110683;28;20101;-64
2021/07/11 06:02:38;;;;;;;13.87;12.40;;;17.00;93.50;;;;;;5110931;28;20059;-65
2021/07/11 06:05:05;;;;;;;15.17;12.73;;;17.00;93.30;;;;;;5109450;28;20125;-64
2021/07/11 06:07:30;;;;;;;14.10;12.67;;;17.00;93.20;;;;;;5110224;28;20543;-64
2021/07/11 06:09:59;;;;;;;15.33;13.17;;;17.10;93.10;;;;;;5110843;28;20143;-64
2021/07/11 06:12:26;;;;;;;15.63;13.10;;;17.10;93.10;;;;;;5110882;28;20048;-65
2021/07/11 06:14:52;;;;;;;14.20;12.20;;;17.20;93.10;;;;;;5114515;28;20043;-65
2021/07/11 06:17:18;;;;;;;14.67;13.17;;;17.20;93.40;;;;;;5114257;28;20051;-64
2021/07/11 06:19:43;;;;;;;16.63;11.97;;;17.20;92.90;;;;;;5114050;28;20052;-64
2021/07/11 06:22:09;;;;;;;14.67;11.27;;;17.20;92.80;;;;;;5114511;28;20156;-64
2021/07/11 06:24:35;;;;;;;17.30;12.53;;;17.30;92.70;;;;;;5114693;28;20051;-64
2021/07/11 06:27:00;;;;;;;13.80;11.57;;;17.40;92.60;;;;;;5114030;28;20040;-66
2021/07/11 06:29:26;;;;;;;13.67;11.73;;;17.40;92.40;;;;;;5114263;28;20602;-64
2021/07/11 06:31:52;;;;;;;13.77;11.53;;;17.50;92.10;;;;;;5114087;28;20511;-65
2021/07/11 06:34:18;;;;;;;13.40;11.47;;;17.50;92.00;;;;;;5112998;28;20058;-65
2021/07/11 06:36:44;;;;;;;12.73;11.37;;;17.50;91.70;;;;;;5114217;28;20071;-65
2021/07/11 06:39:10;;;;;;;12.60;11.37;;;17.50;91.60;;;;;;5114318;28;20071;-65
2021/07/11 06:41:35;;;;;;;13.07;11.67;;;17.50;91.70;;;;;;5113437;28;20077;-65
2021/07/11 06:44:01;;;;;;;14.40;10.77;;;17.60;91.70;;;;;;5113945;28;20051;-64
2021/07/11 06:46:27;;;;;;;12.60;11.30;;;17.60;91.50;;;;;;5114065;28;20055;-65
2021/07/11 06:48:52;;;;;;;12.20;10.90;;;17.70;91.40;;;;;;5113024;28;20052;-64
2021/07/11 06:51:18;;;;;;;12.10;10.80;;;17.80;91.20;;;;;;5113835;28;20049;-65
2021/07/11 06:53:44;;;;;;;10.37;9.27;;;17.80;91.10;;;;;;5112637;28;20108;-65
2021/07/11 06:56:10;;;;;;;13.00;11.63;;;17.90;91.00;;;;;;5113071;28;20051;-65
2021/07/11 06:58:35;;;;;;;12.30;10.63;;;17.90;90.90;;;;;;5113640;28;20043;-65
2021/07/11 07:01:01;;;;;;;13.33;11.10;;;18.00;90.80;;;;;;5113097;28;20498;-65
2021/07/11 07:03:27;;;;;;;13.27;9.77;;;18.10;90.70;;;;;;5113338;28;20097;-65
2021/07/11 07:05:53;;;;;;;12.87;9.97;;;18.10;90.60;;;;;;5113792;28;20051;-65
2021/07/11 07:08:19;;;;;;;11.27;10.03;;;18.20;90.60;;;;;;5112236;28;20187;-65
2021/07/11 07:10:45;;;;;;;11.93;10.17;;;18.20;90.50;;;;;;5113496;28;20051;-64
2021/07/11 07:13:10;;;;;;;11.40;10.23;;;18.30;90.40;;;;;;5112885;28;20051;-65
2021/07/11 07:15:36;;;;;;;12.43;10.70;;;18.40;90.20;;;;;;5112606;27;20054;-65
2021/07/11 07:18:03;;;;;;;11.43;10.23;;;18.50;90.10;;;;;;5113096;28;20085;-65
2021/07/11 07:20:28;;;;;;;14.50;10.13;;;18.50;89.80;;;;;;5113232;28;20375;-66
2021/07/11 07:22:54;;;;;;;11.60;9.23;;;18.50;90.00;;;;;;5111715;28;20069;-65
2021/07/11 07:25:20;;;;;;;12.33;9.90;;;18.60;89.30;;;;;;5112208;28;20086;-65
2021/07/11 07:27:46;;;;;;;12.03;9.37;;;18.60;89.30;;;;;;5112262;28;20042;-65
2021/07/11 07:30:19;;;;;;;12.13;9.90;;;18.60;89.30;;;;;;5111346;28;20047;-67
2021/07/11 07:32:48;;;;;;;11.90;10.13;;;18.70;89.40;;;;;;5109889;28;20051;-68
2021/07/11 07:35:15;;;;;;;12.47;10.23;;;18.80;89.20;;;;;;5112079;28;20361;-67
2021/07/11 07:37:40;;;;;;;13.50;10.70;;;18.90;89.20;;;;;;5111457;28;20039;-67
2021/07/11 07:40:06;;;;;;;12.23;10.43;;;19.00;88.60;;;;;;5112400;28;20054;-67
2021/07/11 07:42:32;;;;;;;12.93;9.93;;;19.00;88.50;;;;;;5111754;28;20055;-68
2021/07/11 07:44:58;;;;;;;12.10;10.60;;;19.10;88.30;;;;;;5111327;28;20048;-67
2021/07/11 07:47:24;;;;;;;11.17;9.53;;;19.10;88.00;;;;;;5111857;28;20048;-68
2021/07/11 07:49:50;;;;;;;11.00;10.00;;;19.10;87.60;;;;;;5112191;28;20047;-68
2021/07/11 07:52:16;;;;;;;14.10;10.87;;;19.20;87.20;;;;;;5110264;28;20134;-68
2021/07/11 07:54:42;;;;;;;12.13;10.90;;;19.20;86.90;;;;;;5110293;28;20503;-67
2021/07/11 07:57:08;;;;;;;10.90;9.80;;;19.20;86.90;;;;;;5109493;28;20051;-67
2021/07/11 07:59:34;;;;;;;11.67;10.50;;;19.30;86.60;;;;;;5110092;28;20048;-67
2021/07/11 08:01:59;;;;;;;11.67;9.57;;;19.30;86.60;;;;;;5108824;28;20120;-67
2021/07/11 08:04:25;;;;;;;13.30;11.23;;;19.40;86.40;;;;;;5108250;28;20047;-67
2021/07/11 08:06:51;;;;;;;13.97;11.10;;;19.50;86.10;;;;;;5109599;28;20085;-67
2021/07/11 08:09:17;;;;;;;12.57;11.23;;;19.50;85.70;;;;;;5109473;28;20047;-67
2021/07/11 08:11:44;;;;;;;11.50;9.80;;;19.60;85.50;;;;;;5107281;28;20443;-68
2021/07/11 08:14:09;;;;;;;12.30;10.40;;;19.60;85.10;;;;;;5111114;28;20051;-68
2021/07/11 08:16:35;;;;;;;12.17;10.37;;;19.60;84.70;;;;;;5111132;28;20044;-68
2021/07/11 08:19:01;;;;;;;11.27;9.83;;;19.80;84.90;;;;;;5110603;28;20408;-68
2021/07/11 08:21:29;;;;;;;12.07;10.10;;;19.90;85.80;;;;;;5110561;28;20040;-68
2021/07/11 08:23:57;;;;;;;11.20;9.97;;;20.30;85.30;;;;;;5109970;28;20369;-68
2021/07/11 08:26:23;;;;;;;12.60;9.70;;;20.60;84.40;;;;;;5109140;28;20047;-69
2021/07/11 08:28:48;;;;;;;11.13;9.90;;;20.70;83.70;;;;;;5110520;28;20138;-68
2021/07/11 08:31:14;;;;;;;13.13;8.77;;;20.80;82.50;;;;;;5110205;28;20150;-68
2021/07/11 08:33:40;;;;;;;12.17;10.40;;;20.90;81.40;;;;;;5109537;28;20130;-68
2021/07/11 08:36:06;;;;;;;11.03;9.57;;;20.90;81.00;;;;;;5109839;28;20067;-69
2021/07/11 08:38:32;;;;;;;10.55;9.50;;;20.90;81.30;;;;;;5111000;28;20044;-68
2021/07/11 08:40:57;;;;;;;10.13;9.00;;;21.00;80.70;;;;;;5110799;28;20051;-68
2021/07/11 08:43:23;;;;;;;10.88;9.55;;;21.00;79.90;;;;;;5111498;28;20096;-68
2021/07/11 08:45:49;;;;;;;11.67;9.80;;;21.00;79.60;;;;;;5111672;28;20050;-68
2021/07/11 08:48:15;;;;;;;10.55;9.55;;;21.10;79.40;;;;;;5110471;28;20044;-68
2021/07/11 08:50:43;;;;;;;11.15;10.05;;;21.20;79.10;;;;;;5111457;28;20051;-68
2021/07/11 08:53:14;;;;;;;10.02;9.02;;;21.30;79.10;;;;;;5111293;28;20047;-69
2021/07/11 08:55:40;;;;;;;10.60;9.50;;;21.50;78.50;;;;;;5111246;28;20047;-68
2021/07/11 08:58:06;;;;;;;12.32;8.95;;;21.50;78.60;;;;;;5111486;28;20075;-68
2021/07/11 09:00:37;;;;;;;10.77;9.68;;;21.50;78.60;;;;;;5110578;28;20138;-68
2021/07/11 09:03:04;;;;;;;10.30;9.05;;;21.40;77.80;;;;;;5111607;28;20043;-68
2021/07/11 09:05:33;;;;;;;12.07;8.55;;;21.40;77.60;;;;;;5111195;28;20093;-68
2021/07/11 09:08:01;;;;;;;10.50;9.50;;;21.40;77.70;;;;;;5110375;28;20135;-68
2021/07/11 09:10:51;;;;;;;10.40;8.93;;;21.40;77.00;;;;;;5111029;28;20070;-68
2021/07/11 09:13:19;;;;;;;10.18;9.18;;;21.40;76.60;;;;;;5103476;28;20047;-68
2021/07/11 09:15:50;;;;;;;10.68;9.35;;;21.50;77.30;;;;;;5110485;28;20048;-68
2021/07/11 09:18:22;;;;;;;12.70;10.82;;;21.50;77.80;;;;;;5110476;28;20135;-68
2021/07/11 09:20:58;;;;;;;10.75;9.60;;;21.60;77.60;;;;;;5111353;28;20043;-67
2021/07/11 09:23:31;;;;;;;10.50;9.13;;;21.70;77.20;;;;;;5110173;28;20053;-68
2021/07/11 09:26:35;;;;;;;9.80;8.80;;;21.70;76.90;;;;;;5110878;28;20050;-68
2021/07/11 09:29:00;;;;;;;10.38;9.27;;;21.70;75.90;;;;;;5100636;28;20050;-67
2021/07/11 09:31:26;;;;;;;11.35;10.25;;;21.70;77.40;;;;;;5110884;28;20043;-68
2021/07/11 09:33:59;;;;;;;10.38;9.32;;;21.70;75.90;;;;;;5111244;28;20130;-67
2021/07/11 09:36:25;;;;;;;10.55;9.45;;;21.80;76.10;;;;;;5109847;28;20071;-68
2021/07/11 09:38:58;;;;;;;12.57;11.27;;;21.70;75.90;;;;;;5111073;28;20411;-67
2021/07/11 09:41:31;;;;;;;12.15;10.80;;;21.70;75.50;;;;;;5110532;28;20119;-68
2021/07/11 09:43:59;;;;;;;9.40;8.45;;;21.70;75.90;;;;;;5110378;28;20047;-68
2021/07/11 09:46:28;;;;;;;10.50;9.40;;;21.70;76.00;;;;;;5110676;28;20043;-67
2021/07/11 09:48:53;;;;;;;13.38;10.52;;;21.70;76.10;;;;;;5114986;28;20137;-67
2021/07/11 09:51:20;;;;;;;11.93;10.07;;;21.80;76.40;;;;;;5113651;28;20051;-67
2021/07/11 09:53:48;;;;;;;12.23;10.35;;;21.90;76.40;;;;;;5114447;28;20043;-67
2021/07/11 09:56:32;;;;;;;12.00;10.75;;;21.90;76.10;;;;;;5114182;28;20051;-68
2021/07/11 09:59:01;;;;;;;11.85;10.70;;;21.90;74.60;;;;;;5113314;28;20131;-69
2021/07/11 10:01:28;;;;;;;10.88;9.48;;;21.90;75.80;;;;;;5113854;28;20130;-68
2021/07/11 10:03:54;;;;;;;12.18;9.98;;;21.90;75.30;;;;;;5113057;28;20074;-68
2021/07/11 10:06:20;;;;;;;12.15;10.50;;;21.90;75.60;;;;;;5113587;28;20188;-67
2021/07/11 10:08:45;;;;;;;11.88;10.68;;;21.90;75.50;;;;;;5114440;28;20048;-67
2021/07/11 10:11:11;;;;;;;11.85;10.27;;;21.90;75.40;;;;;;5113302;28;20075;-68
2021/07/11 10:13:38;;;;;;;13.65;9.80;;;22.00;75.50;;;;;;5114159;28;20057;-68
2021/07/11 10:16:09;;;;;;;11.25;10.05;;;22.10;75.90;;;;;;5114041;28;20062;-68
2021/07/11 10:18:35;;;;;;;10.80;9.80;;;22.10;75.70;;;;;;5114077;28;20066;-68
2021/07/11 10:21:01;;;;;;;12.57;10.50;;;22.10;75.60;;;;;;5113695;28;20059;-68
2021/07/11 10:23:33;;;;;;;10.98;9.65;;;22.10;75.60;;;;;;5113468;28;20135;-68
2021/07/11 10:26:04;;;;;;;12.00;9.57;;;22.20;75.70;;;;;;5113100;28;20047;-68
2021/07/11 10:28:32;;;;;;;12.77;10.00;;;22.20;76.00;;;;;;5113270;28;20357;-69
2021/07/11 10:30:58;;;;;;;12.07;10.27;;;22.30;75.40;;;;;;5113565;28;20051;-67
2021/07/11 10:33:26;;;;;;;11.43;10.25;;;22.40;75.00;;;;;;5112436;28;20134;-68
2021/07/11 10:36:03;;;;;;;10.75;9.55;;;22.50;74.40;;;;;;5113748;28;20494;-68
2021/07/11 10:38:39;;;;;;;11.20;9.73;;;22.50;73.80;;;;;;5113412;28;20561;-68
2021/07/11 10:41:16;;;;;;;10.30;9.30;;;22.50;73.90;;;;;;5112645;28;20051;-68
2021/07/11 10:44:02;;;;;;;10.95;9.85;;;22.50;74.00;;;;;;5113641;28;20051;-68
2021/07/11 10:46:41;;;;;;;10.07;9.07;;;22.50;74.00;;;;;;5112321;28;20084;-68
2021/07/11 10:49:25;;;;;;;10.35;9.35;;;22.50;73.80;;;;;;5113498;28;20082;-68
2021/07/11 10:51:51;;;;;;;10.60;8.63;;;22.40;74.30;;;;;;5113248;28;20334;-68
2021/07/11 10:54:29;;;;;;;10.48;9.48;;;22.40;74.00;;;;;;5112288;28;20035;-68
2021/07/11 10:57:09;;;;;;;10.13;9.13;;;22.40;74.00;;;;;;5113429;28;20055;-68
2021/07/11 10:59:38;;;;;;;12.48;9.60;;;22.40;73.70;;;;;;5112590;28;20444;-68
2021/07/11 11:02:17;;;;;;;10.23;9.23;;;22.40;73.70;;;;;;5112524;27;20051;-68
2021/07/11 11:04:44;;;;;;;10.93;9.82;;;22.40;73.70;;;;;;5113339;28;20048;-68
2021/07/11 11:07:16;;;;;;;10.55;9.50;;;22.50;73.50;;;;;;5112318;28;20109;-68
2021/07/11 11:09:44;;;;;;;9.40;8.50;;;22.50;72.80;;;;;;5113112;28;20495;-67
2021/07/11 11:12:29;;;;;;;9.75;8.80;;;22.50;72.50;;;;;;5112459;28;20070;-68
2021/07/11 11:15:00;;;;;;;9.93;8.93;;;22.60;72.50;;;;;;5112164;28;20419;-68
2021/07/11 11:17:33;;;;;;;9.48;8.48;;;22.60;72.50;;;;;;5112164;28;20128;-68
2021/07/11 11:20:01;;;;;;;9.55;8.55;;;22.70;72.40;;;;;;5112709;28;20067;-69
2021/07/11 11:22:27;;;;;;;9.07;8.18;;;22.70;71.60;;;;;;5111554;27;20134;-69
2021/07/11 11:24:52;;;;;;;11.40;8.63;;;22.60;71.30;;;;;;5112608;28;20075;-69
2021/07/11 11:27:32;;;;;;;10.15;8.95;;;22.60;71.50;;;;;;5112254;28;20571;-69
2021/07/11 11:30:15;;;;;;;9.77;8.77;;;22.50;71.60;;;;;;5112172;28;20069;-68
2021/07/11 11:32:42;;;;;;;9.73;8.70;;;22.50;72.10;;;;;;5113112;28;20105;-68
2021/07/11 11:35:09;;;;;;;10.15;8.90;;;22.40;72.20;;;;;;5111671;28;20517;-68
2021/07/11 11:37:44;;;;;;;12.15;8.45;;;22.30;72.10;;;;;;5112360;28;20112;-68
2021/07/11 11:40:14;;;;;;;10.52;9.50;;;22.30;72.40;;;;;;5112062;28;20468;-68
2021/07/11 11:42:51;;;;;;;10.43;9.38;;;22.30;72.80;;;;;;5111805;28;20107;-69
2021/07/11 11:45:19;;;;;;;9.02;8.10;;;22.30;72.40;;;;;;5112366;28;20069;-68
2021/07/11 11:47:56;;;;;;;8.60;7.57;;;22.20;74.00;;;;;;5112141;28;20101;-69
2021/07/11 11:50:22;;;;;;;11.15;7.95;;;22.10;75.60;;;;;;5111655;28;20052;-68
2021/07/11 11:52:47;;;;;;;9.38;8.38;;;22.00;75.20;;;;;;5112079;28;20073;-68
2021/07/11 11:55:14;;;;;;;11.95;9.00;;;22.00;75.80;;;;;;5111938;28;20487;-68
2021/07/11 11:57:41;;;;;;;9.57;8.57;;;21.90;76.20;;;;;;5111823;28;20044;-69
2021/07/11 12:00:14;;;;;;;10.45;8.82;;;22.00;75.90;;;;;;5111622;28;20043;-68
2021/07/11 12:02:40;;;;;;;9.48;8.55;;;21.90;75.20;;;;;;5112056;28;20051;-68
2021/07/11 12:05:14;;;;;;;10.25;9.27;;;22.00;75.60;;;;;;5110821;28;20139;-68
2021/07/11 12:07:42;;;;;;;9.50;8.55;;;22.00;75.50;;;;;;5111759;28;20047;-68
2021/07/11 12:10:09;;;;;;;9.02;8.20;;;22.10;75.10;;;;;;5110971;28;20052;-68
2021/07/11 12:12:35;;;;;;;9.88;8.88;;;22.20;75.10;;;;;;5110729;28;20058;-69
2021/07/11 12:15:01;;;;;;;10.95;9.25;;;22.30;74.60;;;;;;5111744;28;20047;-68
2021/07/11 12:17:32;;;;;;;11.38;10.18;;;22.50;74.30;;;;;;5110296;28;20078;-68
2021/07/11 12:19:58;;;;;;;10.98;9.40;;;22.50;73.60;;;;;;5112031;28;20039;-69
2021/07/11 12:22:38;;;;;;;9.30;8.32;;;22.60;73.60;;;;;;5111460;28;20051;-68
2021/07/11 12:25:13;;;;;;;9.02;8.10;;;22.70;73.90;;;;;;5111108;28;20228;-68
2021/07/11 12:27:45;;;;;;;9.52;8.50;;;22.70;73.90;;;;;;5111506;28;20040;-68
2021/07/11 12:30:17;;;;;;;10.27;8.25;;;22.70;74.20;;;;;;5111487;28;20103;-69
2021/07/11 12:32:53;;;;;;;9.75;8.75;;;22.90;73.90;;;;;;5110836;28;20496;-69
2021/07/11 12:35:22;;;;;;;9.00;7.88;;;23.10;73.40;;;;;;5111356;28;20048;-69